createdAt,value
2019-05-05T00:00:56.213Z,75.70
2019-05-05T00:05:11.775Z,76.20
2019-05-05T00:09:17.378Z,76.70
2019-05-05T00:13:29.854Z,76.70
2019-05-05T00:17:35.601Z,76.60
2019-05-05T00:21:44.566Z,75.80
2019-05-05T00:25:50.311Z,76.20
2019-05-05T00:29:55.952Z,75.60
2019-05-05T00:34:01.722Z,76.60
2019-05-05T00:38:07.404Z,73.70
2019-05-05T00:42:15.245Z,75.90
2019-05-05T00:46:39.868Z,76.00
2019-05-05T00:50:45.445Z,77.60
2019-05-05T00:54:51.052Z,77.30
2019-05-05T00:59:00.574Z,75.50
2019-05-05T01:03:08.646Z,75.80
2019-05-05T01:07:14.402Z,76.00
2019-05-05T01:11:20.433Z,75.40
2019-05-05T01:15:26.023Z,75.20
2019-05-05T01:19:31.651Z,75.90
2019-05-05T01:23:38.250Z,75.30
2019-05-05T01:27:45.299Z,75.90
2019-05-05T01:31:51.753Z,75.80
2019-05-05T01:35:57.520Z,75.70
2019-05-05T01:40:35.363Z,74.20
2019-05-05T01:44:41.052Z,75.10
2019-05-05T01:48:46.690Z,77.30
2019-05-05T01:52:52.349Z,75.50
2019-05-05T01:56:58.096Z,75.50
2019-05-05T02:01:04.984Z,75.80
2019-05-05T02:05:10.673Z,75.50
2019-05-05T02:09:16.330Z,74.60
2019-05-05T02:13:22.115Z,76.70
2019-05-05T02:17:27.698Z,76.10
2019-05-05T02:21:35.312Z,75.20
2019-05-05T02:25:41.250Z,74.60
2019-05-05T02:29:54.778Z,75.90
2019-05-05T02:33:59.938Z,75.10
2019-05-05T02:38:06.783Z,74.70
2019-05-05T02:42:14.699Z,74.50
2019-05-05T02:46:37.505Z,77.70
2019-05-05T02:51:01.730Z,76.00
2019-05-05T02:55:04.300Z,76.80
2019-05-05T02:59:14.704Z,76.40
2019-05-05T03:03:20.374Z,75.60
2019-05-05T03:07:26.880Z,75.40
2019-05-05T03:11:34.212Z,75.80
2019-05-05T03:15:49.404Z,78.00
2019-05-05T03:19:55.198Z,76.50
2019-05-05T03:24:00.813Z,75.80
2019-05-05T03:28:06.564Z,75.10
2019-05-05T03:32:15.728Z,76.00
2019-05-05T03:36:19.402Z,75.10
2019-05-05T03:40:29.669Z,76.00
2019-05-05T03:44:40.669Z,75.00
2019-05-05T03:48:46.312Z,74.40
2019-05-05T03:52:54.278Z,74.80
2019-05-05T03:57:08.146Z,75.80
2019-05-05T04:01:37.842Z,76.60
2019-05-05T04:05:48.154Z,76.10
2019-05-05T04:09:54.342Z,75.50
2019-05-05T04:14:00.193Z,76.10
2019-05-05T04:18:20.029Z,76.30
2019-05-05T04:22:25.561Z,75.20
2019-05-05T04:26:33.029Z,75.90
2019-05-05T04:30:38.526Z,75.80
2019-05-05T04:34:44.202Z,75.80
2019-05-05T04:38:49.863Z,76.60
2019-05-05T04:42:55.480Z,77.10
2019-05-05T04:47:06.211Z,77.30
2019-05-05T04:51:19.316Z,76.10
2019-05-05T04:55:24.941Z,75.70
2019-05-05T04:59:30.570Z,76.20
2019-05-05T05:03:51.154Z,76.10
2019-05-05T05:07:58.075Z,76.30
2019-05-05T05:12:04.347Z,76.20
2019-05-05T05:16:09.993Z,75.40
2019-05-05T05:20:15.600Z,75.00
2019-05-05T05:24:21.223Z,75.80
2019-05-05T05:28:26.847Z,75.70
2019-05-05T05:32:33.995Z,75.30
2019-05-05T05:36:39.682Z,74.80
2019-05-05T05:40:50.709Z,74.80
2019-05-05T05:45:24.921Z,76.00
2019-05-05T05:49:34.692Z,75.20
2019-05-05T05:53:43.985Z,75.70
2019-05-05T05:57:49.647Z,76.60
2019-05-05T06:02:08.333Z,75.70
2019-05-05T06:06:04.618Z,75.80
2019-05-05T06:10:23.710Z,76.30
2019-05-05T06:14:18.896Z,75.50
2019-05-05T06:18:25.708Z,76.60
2019-05-05T06:22:31.655Z,76.30
2019-05-05T06:26:38.529Z,76.30
2019-05-05T06:30:44.540Z,77.00
2019-05-05T06:34:51.190Z,76.60
2019-05-05T06:38:58.471Z,76.00
2019-05-05T06:43:23.711Z,76.00
2019-05-05T06:47:33.982Z,77.20
2019-05-05T06:51:39.764Z,75.80
2019-05-05T06:55:45.920Z,75.00
2019-05-05T06:59:51.627Z,74.80
2019-05-05T07:03:57.308Z,75.70
2019-05-05T07:08:04.455Z,76.80
2019-05-05T07:12:10.378Z,76.50
2019-05-05T07:16:16.431Z,75.90
2019-05-05T07:20:24.023Z,76.60
2019-05-05T07:24:30.746Z,75.10
2019-05-05T07:28:36.370Z,75.10
2019-05-05T07:32:44.181Z,76.50
2019-05-05T07:36:50.782Z,76.30
2019-05-05T07:40:56.455Z,76.10
2019-05-05T07:45:18.956Z,77.10
2019-05-05T07:49:13.863Z,75.80
2019-05-05T07:53:19.690Z,76.20
2019-05-05T07:57:34.755Z,76.20
2019-05-05T08:01:43.337Z,76.70
2019-05-05T08:05:49.268Z,75.60
2019-05-05T08:09:55.981Z,75.40
2019-05-05T08:14:03.853Z,76.60
2019-05-05T08:18:20.739Z,77.40
2019-05-05T08:22:26.410Z,76.00
2019-05-05T08:26:56.995Z,76.60
2019-05-05T08:31:11.774Z,78.20
2019-05-05T08:35:17.405Z,77.20
2019-05-05T08:39:24.521Z,75.70
2019-05-05T08:43:30.197Z,76.40
2019-05-05T08:47:36.006Z,77.00
2019-05-05T08:51:41.771Z,76.20
2019-05-05T08:55:48.653Z,76.10
2019-05-05T08:59:54.594Z,76.20
2019-05-05T09:04:08.122Z,75.50
2019-05-05T09:08:14.020Z,75.80
2019-05-05T09:12:19.856Z,74.00
2019-05-05T09:16:25.583Z,75.10
2019-05-05T09:20:39.134Z,75.70
2019-05-05T09:25:08.486Z,75.40
2019-05-05T09:29:21.528Z,74.50
2019-05-05T09:33:27.163Z,75.80
2019-05-05T09:37:33.964Z,75.60
2019-05-05T09:41:39.806Z,75.00
2019-05-05T09:45:45.618Z,75.50
2019-05-05T09:49:52.260Z,75.30
2019-05-05T09:54:11.104Z,74.80
2019-05-05T09:58:06.244Z,76.00
2019-05-05T10:02:13.517Z,74.90
2019-05-05T10:06:19.181Z,74.40
2019-05-05T10:10:24.904Z,73.60
2019-05-05T10:14:30.655Z,75.20
2019-05-05T10:18:36.403Z,73.80
2019-05-05T10:22:43.822Z,73.90
2019-05-05T10:26:49.340Z,75.00
2019-05-05T10:30:54.983Z,74.50
2019-05-05T10:35:04.559Z,74.20
2019-05-05T10:39:17.227Z,74.30
2019-05-05T10:43:23.810Z,73.80
2019-05-05T10:47:30.747Z,73.70
2019-05-05T10:51:36.370Z,74.80
2019-05-05T10:55:42.012Z,73.80
2019-05-05T10:59:48.715Z,74.30
2019-05-05T11:03:54.475Z,74.80
2019-05-05T11:08:00.180Z,75.40
2019-05-05T11:12:05.796Z,74.40
2019-05-05T11:16:11.651Z,74.00
2019-05-05T11:20:17.356Z,75.00
2019-05-05T11:24:23.988Z,73.90
2019-05-05T11:28:29.686Z,74.30
2019-05-05T11:32:53.178Z,74.50
2019-05-05T11:37:19.475Z,75.30
2019-05-05T11:41:25.157Z,75.10
2019-05-05T11:45:30.818Z,75.20
2019-05-05T11:49:36.420Z,74.90
2019-05-05T11:53:42.101Z,74.80
2019-05-05T11:57:48.223Z,76.40
2019-05-05T12:01:54.924Z,75.20
2019-05-05T12:06:01.327Z,74.90
2019-05-05T12:10:09.264Z,76.20
2019-05-05T12:14:16.925Z,75.30
2019-05-05T12:18:23.728Z,76.20
2019-05-05T12:22:29.418Z,77.70
2019-05-05T12:26:51.291Z,76.10
2019-05-05T12:30:58.565Z,77.70
2019-05-05T12:35:04.331Z,75.70
2019-05-05T12:39:14.335Z,75.40
2019-05-05T12:43:20.107Z,77.20
2019-05-05T12:47:56.959Z,78.40
2019-05-05T12:52:04.555Z,76.00
2019-05-05T12:56:10.204Z,75.80
2019-05-05T13:00:17.460Z,76.80
2019-05-05T13:04:24.596Z,77.00
2019-05-05T13:08:30.392Z,76.00
2019-05-05T13:12:36.271Z,75.10
2019-05-05T13:16:50.569Z,75.70
2019-05-05T13:21:01.624Z,75.70
2019-05-05T13:25:28.551Z,75.70
2019-05-05T13:29:35.174Z,77.20
2019-05-05T13:33:40.854Z,76.20
2019-05-05T13:37:46.554Z,75.10
2019-05-05T13:41:53.994Z,75.60
2019-05-05T13:46:14.015Z,75.60
2019-05-05T13:50:31.583Z,75.00
2019-05-05T13:54:37.326Z,74.50
2019-05-05T13:58:43.719Z,79.10
2019-05-05T14:02:49.654Z,80.50
2019-05-05T14:06:55.435Z,79.70
2019-05-05T14:11:01.141Z,79.00
2019-05-05T14:15:08.435Z,78.30
2019-05-05T14:19:14.732Z,78.20
2019-05-05T14:23:20.780Z,77.90
2019-05-05T14:27:31.678Z,78.40
2019-05-05T14:31:40.697Z,78.40
2019-05-05T14:36:08.080Z,77.20
2019-05-05T14:40:22.697Z,79.00
2019-05-05T14:44:29.075Z,77.80
2019-05-05T14:48:37.224Z,78.30
2019-05-05T14:52:45.525Z,80.40
2019-05-05T14:56:51.834Z,78.60
2019-05-05T15:01:05.383Z,79.10
2019-05-05T15:05:30.289Z,79.40
2019-05-05T15:09:46.990Z,78.30
2019-05-05T15:13:56.426Z,77.50
2019-05-05T15:18:06.729Z,78.10
2019-05-05T15:22:15.066Z,78.00
2019-05-05T15:26:23.803Z,79.00
2019-05-05T15:30:29.606Z,78.90
2019-05-05T15:34:35.647Z,76.70
2019-05-05T15:38:43.637Z,77.30
2019-05-05T15:42:49.014Z,76.40
2019-05-05T15:46:57.675Z,76.50
2019-05-05T15:51:04.107Z,77.80
2019-05-05T15:55:09.499Z,78.60
2019-05-05T15:59:15.247Z,77.30
2019-05-05T16:03:20.914Z,77.20
2019-05-05T16:07:26.620Z,78.10
2019-05-05T16:11:33.955Z,78.20
2019-05-05T16:16:01.987Z,77.00
2019-05-05T16:20:13.884Z,77.60
2019-05-05T16:24:25.098Z,78.30
2019-05-05T16:28:30.719Z,78.80
2019-05-05T16:32:36.453Z,77.60
2019-05-05T16:36:43.918Z,77.90
2019-05-05T16:40:49.452Z,78.10
2019-05-05T16:44:55.120Z,77.80
2019-05-05T16:49:03.565Z,78.30
2019-05-05T16:53:11.011Z,78.30
2019-05-05T16:57:16.707Z,78.30
2019-05-05T17:01:22.878Z,78.80
2019-05-05T17:05:28.494Z,78.30
2019-05-05T17:09:34.475Z,77.90
2019-05-05T17:14:03.807Z,79.10
2019-05-05T17:18:36.062Z,79.20
2019-05-05T17:22:52.245Z,78.30
2019-05-05T17:26:58.024Z,78.90
2019-05-05T17:31:03.745Z,79.60
2019-05-05T17:35:09.510Z,77.20
2019-05-05T17:39:15.679Z,78.50
2019-05-05T17:43:39.016Z,79.10
2019-05-05T17:48:04.526Z,79.00
2019-05-05T17:52:29.851Z,79.70
2019-05-05T17:56:36.442Z,78.80
2019-05-05T18:00:48.525Z,79.40
2019-05-05T18:04:55.476Z,78.70
2019-05-05T18:09:19.216Z,79.20
2019-05-05T18:13:31.962Z,78.50
2019-05-05T18:17:38.738Z,78.00
2019-05-05T18:21:44.632Z,79.10
2019-05-05T18:25:54.712Z,79.00
2019-05-05T18:30:03.971Z,77.70
2019-05-05T18:34:14.629Z,79.00
2019-05-05T18:38:30.498Z,78.40
2019-05-05T18:42:37.659Z,79.60
2019-05-05T18:46:51.603Z,79.90
2019-05-05T18:50:57.827Z,79.40
2019-05-05T18:55:04.875Z,79.80
2019-05-05T18:59:13.331Z,79.60
2019-05-05T19:03:24.518Z,78.60
2019-05-05T19:07:56.469Z,79.00
2019-05-05T19:12:06.057Z,79.40
2019-05-05T19:16:14.113Z,79.50
2019-05-05T19:20:37.370Z,79.10
2019-05-05T19:24:44.135Z,79.70
2019-05-05T19:28:54.804Z,79.70
2019-05-05T19:33:00.584Z,79.20
2019-05-05T19:37:08.318Z,79.10
2019-05-05T19:41:14.473Z,79.00
2019-05-05T19:45:20.634Z,79.30
2019-05-05T19:49:28.128Z,79.50
2019-05-05T19:53:35.580Z,79.50
2019-05-05T19:57:44.776Z,78.80
2019-05-05T20:01:53.871Z,78.50
2019-05-05T20:05:59.640Z,79.90
2019-05-05T20:10:05.477Z,79.50
2019-05-05T20:14:11.974Z,79.10
2019-05-05T20:18:17.747Z,78.30
2019-05-05T20:22:23.694Z,78.50
2019-05-05T20:26:30.864Z,78.20
2019-05-05T20:30:40.045Z,78.30
2019-05-05T20:34:59.864Z,78.80
2019-05-05T20:39:07.964Z,79.30
2019-05-05T20:43:15.546Z,79.80
2019-05-05T20:47:23.776Z,79.30
2019-05-05T20:51:30.959Z,78.80
2019-05-05T20:55:39.687Z,79.70
2019-05-05T20:59:48.156Z,78.80
2019-05-05T21:03:54.029Z,79.50
2019-05-05T21:07:59.852Z,78.90
2019-05-05T21:12:05.649Z,79.10
2019-05-05T21:16:11.462Z,79.00
2019-05-05T21:20:17.353Z,79.10
2019-05-05T21:24:24.350Z,78.10
2019-05-05T21:28:33.125Z,78.20
2019-05-05T21:32:40.868Z,78.90
2019-05-05T21:36:47.316Z,78.50
2019-05-05T21:40:53.667Z,78.50
2019-05-05T21:44:59.391Z,78.70
2019-05-05T21:49:05.229Z,79.60
2019-05-05T21:53:27.250Z,79.40
2019-05-05T21:57:54.742Z,79.40
2019-05-05T22:02:00.623Z,79.50
2019-05-05T22:06:06.739Z,79.30
2019-05-05T22:10:13.591Z,79.50
2019-05-05T22:14:20.905Z,79.00
2019-05-05T22:18:28.251Z,78.90
2019-05-05T22:22:36.373Z,79.70
2019-05-05T22:26:44.598Z,80.80
2019-05-05T22:30:51.208Z,79.90
2019-05-05T22:34:59.507Z,79.90
2019-05-05T22:39:07.298Z,78.70
2019-05-05T22:43:15.174Z,79.80
2019-05-05T22:47:23.483Z,79.60
2019-05-05T22:51:30.744Z,79.80
2019-05-05T22:55:36.895Z,78.90
2019-05-05T22:59:42.621Z,79.80
2019-05-05T23:04:24.014Z,79.00
2019-05-05T23:08:30.484Z,79.30
2019-05-05T23:12:39.452Z,79.20
2019-05-05T23:16:49.316Z,79.00
2019-05-05T23:21:16.202Z,78.80
2019-05-05T23:25:27.339Z,79.20
2019-05-05T23:29:34.132Z,79.40
2019-05-05T23:33:39.997Z,79.50
2019-05-05T23:37:46.243Z,78.80
2019-05-05T23:41:52.005Z,78.90
2019-05-05T23:45:57.701Z,79.50
2019-05-05T23:50:04.514Z,79.10
2019-05-05T23:54:13.533Z,79.00
2019-05-05T23:58:17.853Z,79.80
